sensor_id;sensor_type;location;lat;lon;timestamp;P1;durP1;ratioP1;P2;durP2;ratioP2
73264;SDS011;61493;51.008;14.088;2023-11-19T00:01:00;12.87;;;7.60;;
73264;SDS011;61493;51.008;14.088;2023-11-19T00:03:26;13.90;;;7.33;;
73264;SDS011;61493;51.008;14.088;2023-11-19T00:05:51;13.30;;;6.80;;
73264;SDS011;61493;51.008;14.088;2023-11-19T00:08:16;16.20;;;8.47;;
73264;SDS011;61493;51.008;14.088;2023-11-19T00:10:42;14.43;;;7.40;;
73264;SDS011;61493;51.008;14.088;2023-11-19T00:13:07;13.13;;;7.77;;
73264;SDS011;61493;51.008;14.088;2023-11-19T00:15:33;13.27;;;7.93;;
73264;SDS011;61493;51.008;14.088;2023-11-19T00:17:58;19.30;;;8.90;;
73264;SDS011;61493;51.008;14.088;2023-11-19T00:20:23;14.87;;;8.60;;
73264;SDS011;61493;51.008;14.088;2023-11-19T00:22:48;16.57;;;7.33;;
73264;SDS011;61493;51.008;14.088;2023-11-19T00:25:17;16.37;;;8.10;;
73264;SDS011;61493;51.008;14.088;2023-11-19T00:27:43;12.60;;;7.30;;
73264;SDS011;61493;51.008;14.088;2023-11-19T00:30:11;16.43;;;8.43;;
73264;SDS011;61493;51.008;14.088;2023-11-19T00:32:38;14.67;;;8.13;;
73264;SDS011;61493;51.008;14.088;2023-11-19T00:35:07;12.73;;;6.80;;
73264;SDS011;61493;51.008;14.088;2023-11-19T00:37:33;11.47;;;6.33;;
73264;SDS011;61493;51.008;14.088;2023-11-19T00:39:59;16.63;;;7.20;;
73264;SDS011;61493;51.008;14.088;2023-11-19T00:42:24;13.00;;;7.20;;
73264;SDS011;61493;51.008;14.088;2023-11-19T00:44:52;17.23;;;7.83;;
73264;SDS011;61493;51.008;14.088;2023-11-19T00:47:18;10.90;;;6.50;;
73264;SDS011;61493;51.008;14.088;2023-11-19T00:49:45;13.83;;;7.43;;
73264;SDS011;61493;51.008;14.088;2023-11-19T00:52:13;11.83;;;5.70;;
73264;SDS011;61493;51.008;14.088;2023-11-19T00:54:38;13.33;;;6.53;;
73264;SDS011;61493;51.008;14.088;2023-11-19T00:57:03;12.10;;;7.03;;
73264;SDS011;61493;51.008;14.088;2023-11-19T00:59:30;13.23;;;6.57;;
73264;SDS011;61493;51.008;14.088;2023-11-19T01:01:56;11.03;;;6.73;;
73264;SDS011;61493;51.008;14.088;2023-11-19T01:04:21;9.70;;;5.23;;
73264;SDS011;61493;51.008;14.088;2023-11-19T01:06:46;11.20;;;5.73;;
73264;SDS011;61493;51.008;14.088;2023-11-19T01:09:12;12.30;;;6.87;;
73264;SDS011;61493;51.008;14.088;2023-11-19T01:11:37;12.77;;;7.67;;
73264;SDS011;61493;51.008;14.088;2023-11-19T01:14:03;14.37;;;6.87;;
73264;SDS011;61493;51.008;14.088;2023-11-19T01:16:28;7.90;;;5.13;;
73264;SDS011;61493;51.008;14.088;2023-11-19T01:18:53;13.37;;;6.70;;
73264;SDS011;61493;51.008;14.088;2023-11-19T01:21:19;13.70;;;6.50;;
73264;SDS011;61493;51.008;14.088;2023-11-19T01:23:44;11.50;;;6.80;;
73264;SDS011;61493;51.008;14.088;2023-11-19T01:26:11;12.73;;;6.80;;
73264;SDS011;61493;51.008;14.088;2023-11-19T01:28:40;12.90;;;7.10;;
73264;SDS011;61493;51.008;14.088;2023-11-19T01:31:09;11.57;;;6.43;;
73264;SDS011;61493;51.008;14.088;2023-11-19T01:33:38;11.80;;;7.23;;
73264;SDS011;61493;51.008;14.088;2023-11-19T01:36:05;11.30;;;6.70;;
73264;SDS011;61493;51.008;14.088;2023-11-19T01:38:30;12.23;;;6.20;;
73264;SDS011;61493;51.008;14.088;2023-11-19T01:40:58;8.93;;;5.13;;
73264;SDS011;61493;51.008;14.088;2023-11-19T01:45:59;10.53;;;5.97;;
73264;SDS011;61493;51.008;14.088;2023-11-19T01:48:25;12.30;;;6.03;;
73264;SDS011;61493;51.008;14.088;2023-11-19T01:50:51;9.63;;;6.00;;
73264;SDS011;61493;51.008;14.088;2023-11-19T01:53:17;10.73;;;6.07;;
73264;SDS011;61493;51.008;14.088;2023-11-19T01:55:46;12.63;;;7.10;;
73264;SDS011;61493;51.008;14.088;2023-11-19T01:58:12;7.93;;;3.90;;
73264;SDS011;61493;51.008;14.088;2023-11-19T02:00:38;11.17;;;5.67;;
73264;SDS011;61493;51.008;14.088;2023-11-19T02:03:03;10.53;;;5.27;;
73264;SDS011;61493;51.008;14.088;2023-11-19T02:05:33;9.60;;;6.00;;
73264;SDS011;61493;51.008;14.088;2023-11-19T02:07:59;10.37;;;5.37;;
73264;SDS011;61493;51.008;14.088;2023-11-19T02:10:24;11.73;;;6.80;;
73264;SDS011;61493;51.008;14.088;2023-11-19T02:12:50;10.13;;;5.33;;
73264;SDS011;61493;51.008;14.088;2023-11-19T02:15:16;12.93;;;6.87;;
73264;SDS011;61493;51.008;14.088;2023-11-19T02:17:44;8.60;;;5.37;;
73264;SDS011;61493;51.008;14.088;2023-11-19T02:20:09;11.80;;;6.77;;
73264;SDS011;61493;51.008;14.088;2023-11-19T02:22:37;9.77;;;4.77;;
73264;SDS011;61493;51.008;14.088;2023-11-19T02:25:07;10.33;;;6.67;;
73264;SDS011;61493;51.008;14.088;2023-11-19T02:30:20;8.43;;;4.63;;
73264;SDS011;61493;51.008;14.088;2023-11-19T02:32:45;10.73;;;5.40;;
73264;SDS011;61493;51.008;14.088;2023-11-19T02:35:11;10.30;;;5.90;;
73264;SDS011;61493;51.008;14.088;2023-11-19T02:37:36;8.80;;;5.23;;
73264;SDS011;61493;51.008;14.088;2023-11-19T02:40:03;7.50;;;4.67;;
73264;SDS011;61493;51.008;14.088;2023-11-19T02:42:30;8.70;;;4.83;;
73264;SDS011;61493;51.008;14.088;2023-11-19T02:44:56;8.47;;;4.20;;
73264;SDS011;61493;51.008;14.088;2023-11-19T02:47:24;7.20;;;4.53;;
73264;SDS011;61493;51.008;14.088;2023-11-19T02:49:50;9.97;;;4.73;;
73264;SDS011;61493;51.008;14.088;2023-11-19T02:52:18;12.33;;;4.87;;
73264;SDS011;61493;51.008;14.088;2023-11-19T02:54:43;8.57;;;4.57;;
73264;SDS011;61493;51.008;14.088;2023-11-19T02:57:09;6.10;;;3.73;;
73264;SDS011;61493;51.008;14.088;2023-11-19T02:59:38;6.93;;;3.40;;
73264;SDS011;61493;51.008;14.088;2023-11-19T03:02:07;7.07;;;4.60;;
73264;SDS011;61493;51.008;14.088;2023-11-19T03:04:36;6.55;;;3.72;;
73264;SDS011;61493;51.008;14.088;2023-11-19T03:07:04;8.67;;;3.97;;
73264;SDS011;61493;51.008;14.088;2023-11-19T03:09:30;5.93;;;3.40;;
73264;SDS011;61493;51.008;14.088;2023-11-19T03:11:55;5.50;;;3.07;;
73264;SDS011;61493;51.008;14.088;2023-11-19T03:14:20;7.00;;;3.10;;
73264;SDS011;61493;51.008;14.088;2023-11-19T03:16:47;5.57;;;3.37;;
73264;SDS011;61493;51.008;14.088;2023-11-19T03:19:13;5.13;;;2.73;;
73264;SDS011;61493;51.008;14.088;2023-11-19T03:21:38;9.13;;;4.37;;
73264;SDS011;61493;51.008;14.088;2023-11-19T03:24:04;4.80;;;2.90;;
73264;SDS011;61493;51.008;14.088;2023-11-19T03:26:29;10.00;;;4.17;;
73264;SDS011;61493;51.008;14.088;2023-11-19T03:28:55;6.53;;;3.83;;
73264;SDS011;61493;51.008;14.088;2023-11-19T03:31:21;5.17;;;3.07;;
73264;SDS011;61493;51.008;14.088;2023-11-19T03:33:47;5.63;;;2.97;;
73264;SDS011;61493;51.008;14.088;2023-11-19T03:36:12;3.67;;;2.40;;
73264;SDS011;61493;51.008;14.088;2023-11-19T03:38:38;4.87;;;3.03;;
73264;SDS011;61493;51.008;14.088;2023-11-19T03:41:13;4.57;;;3.00;;
73264;SDS011;61493;51.008;14.088;2023-11-19T03:43:40;5.83;;;3.13;;
73264;SDS011;61493;51.008;14.088;2023-11-19T03:46:18;6.60;;;3.27;;
73264;SDS011;61493;51.008;14.088;2023-11-19T03:48:44;4.37;;;2.93;;
73264;SDS011;61493;51.008;14.088;2023-11-19T03:51:11;4.37;;;2.53;;
73264;SDS011;61493;51.008;14.088;2023-11-19T03:53:40;4.97;;;3.03;;
73264;SDS011;61493;51.008;14.088;2023-11-19T03:56:06;4.60;;;2.50;;
73264;SDS011;61493;51.008;14.088;2023-11-19T03:58:32;5.20;;;2.80;;
73264;SDS011;61493;51.008;14.088;2023-11-19T04:00:57;5.53;;;3.07;;
73264;SDS011;61493;51.008;14.088;2023-11-19T04:03:23;5.50;;;3.70;;
73264;SDS011;61493;51.008;14.088;2023-11-19T04:05:48;5.93;;;2.90;;
73264;SDS011;61493;51.008;14.088;2023-11-19T04:08:14;5.87;;;3.13;;
73264;SDS011;61493;51.008;14.088;2023-11-19T04:10:40;5.43;;;3.07;;
73264;SDS011;61493;51.008;14.088;2023-11-19T04:13:05;5.17;;;2.73;;
73264;SDS011;61493;51.008;14.088;2023-11-19T04:15:30;5.60;;;3.00;;
73264;SDS011;61493;51.008;14.088;2023-11-19T04:17:55;4.53;;;2.50;;
73264;SDS011;61493;51.008;14.088;2023-11-19T04:20:21;6.47;;;2.87;;
73264;SDS011;61493;51.008;14.088;2023-11-19T04:22:46;3.87;;;3.23;;
73264;SDS011;61493;51.008;14.088;2023-11-19T04:25:11;6.27;;;3.40;;
73264;SDS011;61493;51.008;14.088;2023-11-19T04:27:37;6.23;;;3.50;;
73264;SDS011;61493;51.008;14.088;2023-11-19T04:30:02;6.23;;;3.03;;
73264;SDS011;61493;51.008;14.088;2023-11-19T04:32:28;7.67;;;4.20;;
73264;SDS011;61493;51.008;14.088;2023-11-19T04:34:54;6.87;;;3.93;;
73264;SDS011;61493;51.008;14.088;2023-11-19T04:37:19;5.10;;;3.50;;
73264;SDS011;61493;51.008;14.088;2023-11-19T04:39:44;6.83;;;3.77;;
73264;SDS011;61493;51.008;14.088;2023-11-19T04:42:11;6.73;;;3.33;;
73264;SDS011;61493;51.008;14.088;2023-11-19T04:44:37;6.63;;;3.73;;
73264;SDS011;61493;51.008;14.088;2023-11-19T04:47:02;6.37;;;3.63;;
73264;SDS011;61493;51.008;14.088;2023-11-19T04:49:28;7.53;;;4.37;;
73264;SDS011;61493;51.008;14.088;2023-11-19T04:51:53;8.33;;;5.10;;
73264;SDS011;61493;51.008;14.088;2023-11-19T04:54:18;7.67;;;4.40;;
73264;SDS011;61493;51.008;14.088;2023-11-19T04:56:47;7.37;;;4.13;;
73264;SDS011;61493;51.008;14.088;2023-11-19T04:59:12;6.10;;;4.07;;
73264;SDS011;61493;51.008;14.088;2023-11-19T05:01:38;6.03;;;3.63;;
73264;SDS011;61493;51.008;14.088;2023-11-19T05:04:03;9.13;;;4.27;;
73264;SDS011;61493;51.008;14.088;2023-11-19T05:06:29;7.17;;;4.00;;
73264;SDS011;61493;51.008;14.088;2023-11-19T05:08:58;7.63;;;4.87;;
73264;SDS011;61493;51.008;14.088;2023-11-19T05:11:35;8.50;;;4.67;;
73264;SDS011;61493;51.008;14.088;2023-11-19T05:14:04;7.03;;;4.03;;
73264;SDS011;61493;51.008;14.088;2023-11-19T05:16:30;8.73;;;4.80;;
73264;SDS011;61493;51.008;14.088;2023-11-19T05:18:55;8.33;;;4.97;;
73264;SDS011;61493;51.008;14.088;2023-11-19T05:21:21;7.90;;;5.00;;
73264;SDS011;61493;51.008;14.088;2023-11-19T05:23:46;6.07;;;4.03;;
73264;SDS011;61493;51.008;14.088;2023-11-19T05:26:21;8.20;;;3.73;;
73264;SDS011;61493;51.008;14.088;2023-11-19T05:28:49;9.70;;;5.13;;
73264;SDS011;61493;51.008;14.088;2023-11-19T05:31:15;8.93;;;4.67;;
73264;SDS011;61493;51.008;14.088;2023-11-19T05:33:42;8.63;;;4.73;;
73264;SDS011;61493;51.008;14.088;2023-11-19T05:36:08;9.23;;;4.70;;
73264;SDS011;61493;51.008;14.088;2023-11-19T05:38:34;8.00;;;4.33;;
73264;SDS011;61493;51.008;14.088;2023-11-19T05:41:00;7.60;;;4.37;;
73264;SDS011;61493;51.008;14.088;2023-11-19T05:43:25;9.80;;;5.50;;
73264;SDS011;61493;51.008;14.088;2023-11-19T05:45:51;12.17;;;6.83;;
73264;SDS011;61493;51.008;14.088;2023-11-19T05:48:16;7.40;;;4.50;;
73264;SDS011;61493;51.008;14.088;2023-11-19T05:50:42;8.97;;;4.00;;
73264;SDS011;61493;51.008;14.088;2023-11-19T05:53:07;10.93;;;6.17;;
73264;SDS011;61493;51.008;14.088;2023-11-19T05:55:35;8.27;;;4.13;;
73264;SDS011;61493;51.008;14.088;2023-11-19T05:58:02;10.40;;;5.40;;
73264;SDS011;61493;51.008;14.088;2023-11-19T06:00:29;8.47;;;3.93;;
73264;SDS011;61493;51.008;14.088;2023-11-19T06:02:57;6.57;;;3.33;;
73264;SDS011;61493;51.008;14.088;2023-11-19T06:05:22;9.30;;;4.83;;
73264;SDS011;61493;51.008;14.088;2023-11-19T06:07:48;7.80;;;5.17;;
73264;SDS011;61493;51.008;14.088;2023-11-19T06:10:13;8.30;;;4.40;;
73264;SDS011;61493;51.008;14.088;2023-11-19T06:12:41;6.67;;;3.83;;
73264;SDS011;61493;51.008;14.088;2023-11-19T06:15:07;7.73;;;4.07;;
73264;SDS011;61493;51.008;14.088;2023-11-19T06:17:33;8.97;;;4.33;;
73264;SDS011;61493;51.008;14.088;2023-11-19T06:19:59;8.67;;;4.80;;
73264;SDS011;61493;51.008;14.088;2023-11-19T06:22:24;9.37;;;5.07;;
73264;SDS011;61493;51.008;14.088;2023-11-19T06:24:50;11.50;;;5.00;;
73264;SDS011;61493;51.008;14.088;2023-11-19T06:27:15;9.40;;;4.93;;
73264;SDS011;61493;51.008;14.088;2023-11-19T06:29:40;9.33;;;4.70;;
73264;SDS011;61493;51.008;14.088;2023-11-19T06:32:06;9.07;;;4.73;;
73264;SDS011;61493;51.008;14.088;2023-11-19T06:34:33;7.33;;;4.23;;
73264;SDS011;61493;51.008;14.088;2023-11-19T06:36:58;8.70;;;3.80;;
73264;SDS011;61493;51.008;14.088;2023-11-19T06:39:23;6.90;;;4.33;;
73264;SDS011;61493;51.008;14.088;2023-11-19T06:41:49;9.00;;;4.87;;
73264;SDS011;61493;51.008;14.088;2023-11-19T06:44:15;4.97;;;3.30;;
73264;SDS011;61493;51.008;14.088;2023-11-19T06:46:40;6.60;;;3.23;;
73264;SDS011;61493;51.008;14.088;2023-11-19T06:49:05;7.57;;;4.57;;
73264;SDS011;61493;51.008;14.088;2023-11-19T06:51:33;7.30;;;4.37;;
73264;SDS011;61493;51.008;14.088;2023-11-19T06:53:58;5.73;;;3.57;;
73264;SDS011;61493;51.008;14.088;2023-11-19T06:56:24;6.37;;;3.43;;
73264;SDS011;61493;51.008;14.088;2023-11-19T06:58:50;9.10;;;4.53;;
73264;SDS011;61493;51.008;14.088;2023-11-19T07:01:16;6.63;;;3.50;;
73264;SDS011;61493;51.008;14.088;2023-11-19T07:03:43;6.93;;;3.83;;
73264;SDS011;61493;51.008;14.088;2023-11-19T07:06:10;6.60;;;3.37;;
73264;SDS011;61493;51.008;14.088;2023-11-19T07:08:35;6.27;;;3.33;;
73264;SDS011;61493;51.008;14.088;2023-11-19T07:11:01;7.37;;;3.80;;
73264;SDS011;61493;51.008;14.088;2023-11-19T07:13:27;5.93;;;3.03;;
73264;SDS011;61493;51.008;14.088;2023-11-19T07:15:53;7.13;;;4.00;;
73264;SDS011;61493;51.008;14.088;2023-11-19T07:18:20;6.80;;;3.43;;
73264;SDS011;61493;51.008;14.088;2023-11-19T07:20:47;6.57;;;3.37;;
73264;SDS011;61493;51.008;14.088;2023-11-19T07:23:12;5.73;;;3.00;;
73264;SDS011;61493;51.008;14.088;2023-11-19T07:25:39;6.67;;;3.90;;
73264;SDS011;61493;51.008;14.088;2023-11-19T07:28:04;7.80;;;3.07;;
73264;SDS011;61493;51.008;14.088;2023-11-19T07:30:30;5.03;;;3.13;;
73264;SDS011;61493;51.008;14.088;2023-11-19T07:32:55;7.87;;;4.27;;
73264;SDS011;61493;51.008;14.088;2023-11-19T07:35:20;6.83;;;3.73;;
73264;SDS011;61493;51.008;14.088;2023-11-19T07:37:46;6.57;;;2.97;;
73264;SDS011;61493;51.008;14.088;2023-11-19T07:40:12;5.78;;;3.13;;
73264;SDS011;61493;51.008;14.088;2023-11-19T07:42:38;7.07;;;3.03;;
73264;SDS011;61493;51.008;14.088;2023-11-19T07:45:03;7.83;;;3.77;;
73264;SDS011;61493;51.008;14.088;2023-11-19T07:47:30;4.60;;;3.47;;
73264;SDS011;61493;51.008;14.088;2023-11-19T07:49:55;6.87;;;3.83;;
73264;SDS011;61493;51.008;14.088;2023-11-19T07:52:21;5.70;;;2.73;;
73264;SDS011;61493;51.008;14.088;2023-11-19T07:54:46;7.27;;;3.23;;
73264;SDS011;61493;51.008;14.088;2023-11-19T07:57:11;6.10;;;3.53;;
73264;SDS011;61493;51.008;14.088;2023-11-19T07:59:37;7.65;;;5.00;;
73264;SDS011;61493;51.008;14.088;2023-11-19T08:02:02;8.70;;;4.07;;
73264;SDS011;61493;51.008;14.088;2023-11-19T08:04:28;12.15;;;6.38;;
73264;SDS011;61493;51.008;14.088;2023-11-19T08:06:54;9.33;;;4.97;;
73264;SDS011;61493;51.008;14.088;2023-11-19T08:09:19;23.23;;;10.57;;
73264;SDS011;61493;51.008;14.088;2023-11-19T08:11:44;7.57;;;4.47;;
73264;SDS011;61493;51.008;14.088;2023-11-19T08:14:10;5.73;;;3.17;;
73264;SDS011;61493;51.008;14.088;2023-11-19T08:16:36;7.03;;;5.43;;
73264;SDS011;61493;51.008;14.088;2023-11-19T08:19:02;6.75;;;4.05;;
73264;SDS011;61493;51.008;14.088;2023-11-19T08:21:28;5.13;;;3.17;;
73264;SDS011;61493;51.008;14.088;2023-11-19T08:23:53;5.55;;;3.33;;
73264;SDS011;61493;51.008;14.088;2023-11-19T08:26:19;7.20;;;4.05;;
73264;SDS011;61493;51.008;14.088;2023-11-19T08:28:44;7.03;;;3.35;;
73264;SDS011;61493;51.008;14.088;2023-11-19T08:31:09;5.63;;;2.95;;
73264;SDS011;61493;51.008;14.088;2023-11-19T08:33:35;5.13;;;3.47;;
73264;SDS011;61493;51.008;14.088;2023-11-19T08:36:00;6.95;;;4.05;;
73264;SDS011;61493;51.008;14.088;2023-11-19T08:38:26;8.38;;;5.70;;
73264;SDS011;61493;51.008;14.088;2023-11-19T08:40:51;6.80;;;4.05;;
73264;SDS011;61493;51.008;14.088;2023-11-19T08:43:17;6.18;;;4.25;;
73264;SDS011;61493;51.008;14.088;2023-11-19T08:45:42;7.72;;;4.00;;
73264;SDS011;61493;51.008;14.088;2023-11-19T08:48:07;8.45;;;5.05;;
73264;SDS011;61493;51.008;14.088;2023-11-19T08:50:33;8.18;;;5.45;;
73264;SDS011;61493;51.008;14.088;2023-11-19T08:52:58;8.63;;;4.57;;
73264;SDS011;61493;51.008;14.088;2023-11-19T08:55:23;8.18;;;5.88;;
73264;SDS011;61493;51.008;14.088;2023-11-19T08:57:49;16.20;;;8.32;;
73264;SDS011;61493;51.008;14.088;2023-11-19T09:00:14;19.67;;;12.80;;
73264;SDS011;61493;51.008;14.088;2023-11-19T09:02:39;9.45;;;5.07;;
73264;SDS011;61493;51.008;14.088;2023-11-19T09:05:05;11.63;;;6.10;;
73264;SDS011;61493;51.008;14.088;2023-11-19T09:07:32;23.15;;;11.60;;
73264;SDS011;61493;51.008;14.088;2023-11-19T09:09:58;10.77;;;6.00;;
73264;SDS011;61493;51.008;14.088;2023-11-19T09:12:23;5.85;;;3.70;;
73264;SDS011;61493;51.008;14.088;2023-11-19T09:14:48;20.35;;;11.18;;
73264;SDS011;61493;51.008;14.088;2023-11-19T09:17:14;12.48;;;6.97;;
73264;SDS011;61493;51.008;14.088;2023-11-19T09:19:40;12.48;;;7.65;;
73264;SDS011;61493;51.008;14.088;2023-11-19T09:22:05;21.80;;;15.55;;
73264;SDS011;61493;51.008;14.088;2023-11-19T09:24:31;7.63;;;4.72;;
73264;SDS011;61493;51.008;14.088;2023-11-19T09:26:56;18.45;;;12.10;;
73264;SDS011;61493;51.008;14.088;2023-11-19T09:29:22;8.45;;;4.53;;
73264;SDS011;61493;51.008;14.088;2023-11-19T09:31:47;32.25;;;16.63;;
73264;SDS011;61493;51.008;14.088;2023-11-19T09:34:16;18.40;;;13.80;;
73264;SDS011;61493;51.008;14.088;2023-11-19T09:36:41;15.23;;;9.75;;
73264;SDS011;61493;51.008;14.088;2023-11-19T09:39:09;7.95;;;5.50;;
73264;SDS011;61493;51.008;14.088;2023-11-19T09:41:35;9.77;;;5.65;;
73264;SDS011;61493;51.008;14.088;2023-11-19T09:44:00;7.90;;;3.65;;
73264;SDS011;61493;51.008;14.088;2023-11-19T09:46:26;8.32;;;4.60;;
73264;SDS011;61493;51.008;14.088;2023-11-19T09:48:52;11.68;;;7.57;;
73264;SDS011;61493;51.008;14.088;2023-11-19T09:51:20;10.60;;;6.63;;
73264;SDS011;61493;51.008;14.088;2023-11-19T09:53:45;12.13;;;6.68;;
73264;SDS011;61493;51.008;14.088;2023-11-19T09:56:11;8.73;;;5.95;;
73264;SDS011;61493;51.008;14.088;2023-11-19T09:58:37;11.10;;;8.05;;
73264;SDS011;61493;51.008;14.088;2023-11-19T10:01:03;17.45;;;11.88;;
73264;SDS011;61493;51.008;14.088;2023-11-19T10:03:35;9.25;;;7.13;;
73264;SDS011;61493;51.008;14.088;2023-11-19T10:06:06;10.33;;;6.93;;
73264;SDS011;61493;51.008;14.088;2023-11-19T10:08:32;10.57;;;6.78;;
73264;SDS011;61493;51.008;14.088;2023-11-19T10:10:58;14.60;;;6.97;;
73264;SDS011;61493;51.008;14.088;2023-11-19T10:13:30;13.35;;;8.77;;
73264;SDS011;61493;51.008;14.088;2023-11-19T10:15:56;11.10;;;6.22;;
73264;SDS011;61493;51.008;14.088;2023-11-19T10:18:25;10.50;;;3.95;;
73264;SDS011;61493;51.008;14.088;2023-11-19T10:20:51;6.38;;;3.45;;
73264;SDS011;61493;51.008;14.088;2023-11-19T10:23:17;7.53;;;3.78;;
73264;SDS011;61493;51.008;14.088;2023-11-19T10:25:42;16.92;;;5.53;;
73264;SDS011;61493;51.008;14.088;2023-11-19T10:28:08;11.50;;;3.90;;
73264;SDS011;61493;51.008;14.088;2023-11-19T10:30:33;8.05;;;3.90;;
73264;SDS011;61493;51.008;14.088;2023-11-19T10:33:06;5.10;;;2.55;;
73264;SDS011;61493;51.008;14.088;2023-11-19T10:35:32;5.63;;;2.87;;
73264;SDS011;61493;51.008;14.088;2023-11-19T10:37:59;4.95;;;2.47;;
73264;SDS011;61493;51.008;14.088;2023-11-19T10:40:37;3.90;;;2.60;;
73264;SDS011;61493;51.008;14.088;2023-11-19T10:43:04;5.18;;;3.08;;
73264;SDS011;61493;51.008;14.088;2023-11-19T10:45:32;5.95;;;3.33;;
73264;SDS011;61493;51.008;14.088;2023-11-19T10:47:59;5.97;;;3.40;;
73264;SDS011;61493;51.008;14.088;2023-11-19T10:50:25;5.75;;;3.00;;
73264;SDS011;61493;51.008;14.088;2023-11-19T10:52:52;5.63;;;3.22;;
73264;SDS011;61493;51.008;14.088;2023-11-19T10:55:25;8.03;;;3.83;;
73264;SDS011;61493;51.008;14.088;2023-11-19T10:57:52;7.88;;;3.13;;
73264;SDS011;61493;51.008;14.088;2023-11-19T11:00:21;5.82;;;3.20;;
73264;SDS011;61493;51.008;14.088;2023-11-19T11:02:50;4.40;;;3.45;;
73264;SDS011;61493;51.008;14.088;2023-11-19T11:05:21;5.28;;;3.00;;
73264;SDS011;61493;51.008;14.088;2023-11-19T11:07:47;7.75;;;3.08;;
73264;SDS011;61493;51.008;14.088;2023-11-19T11:10:14;8.15;;;4.43;;
73264;SDS011;61493;51.008;14.088;2023-11-19T11:12:41;5.80;;;3.10;;
73264;SDS011;61493;51.008;14.088;2023-11-19T11:15:10;35.60;;;17.25;;
73264;SDS011;61493;51.008;14.088;2023-11-19T11:17:37;4.20;;;3.17;;
73264;SDS011;61493;51.008;14.088;2023-11-19T11:20:04;15.23;;;7.75;;
73264;SDS011;61493;51.008;14.088;2023-11-19T11:22:34;9.82;;;5.13;;
73264;SDS011;61493;51.008;14.088;2023-11-19T11:25:23;11.00;;;5.65;;
73264;SDS011;61493;51.008;14.088;2023-11-19T11:34:04;13.52;;;7.63;;
73264;SDS011;61493;51.008;14.088;2023-11-19T11:36:47;10.50;;;6.10;;
73264;SDS011;61493;51.008;14.088;2023-11-19T11:39:22;21.83;;;12.38;;
73264;SDS011;61493;51.008;14.088;2023-11-19T11:41:58;17.52;;;9.55;;
73264;SDS011;61493;51.008;14.088;2023-11-19T11:47:22;14.55;;;6.93;;
73264;SDS011;61493;51.008;14.088;2023-11-19T11:49:50;5.97;;;3.38;;
73264;SDS011;61493;51.008;14.088;2023-11-19T11:52:17;24.73;;;13.73;;
73264;SDS011;61493;51.008;14.088;2023-11-19T11:54:42;8.30;;;3.15;;
73264;SDS011;61493;51.008;14.088;2023-11-19T11:57:11;3.42;;;2.25;;
73264;SDS011;61493;51.008;14.088;2023-11-19T12:02:07;7.25;;;3.67;;
73264;SDS011;61493;51.008;14.088;2023-11-19T12:04:34;4.35;;;2.25;;
73264;SDS011;61493;51.008;14.088;2023-11-19T12:07:03;2.83;;;2.03;;
73264;SDS011;61493;51.008;14.088;2023-11-19T12:09:29;3.38;;;1.73;;
73264;SDS011;61493;51.008;14.088;2023-11-19T12:15:00;4.47;;;1.47;;
73264;SDS011;61493;51.008;14.088;2023-11-19T12:19:58;4.28;;;1.85;;
73264;SDS011;61493;51.008;14.088;2023-11-19T12:22:26;5.25;;;2.13;;
73264;SDS011;61493;51.008;14.088;2023-11-19T12:24:55;3.30;;;1.52;;
73264;SDS011;61493;51.008;14.088;2023-11-19T12:27:21;5.03;;;1.65;;
73264;SDS011;61493;51.008;14.088;2023-11-19T12:29:49;3.35;;;1.60;;
73264;SDS011;61493;51.008;14.088;2023-11-19T12:32:15;4.53;;;1.15;;
73264;SDS011;61493;51.008;14.088;2023-11-19T12:34:40;5.47;;;1.00;;
73264;SDS011;61493;51.008;14.088;2023-11-19T12:37:06;5.07;;;1.05;;
73264;SDS011;61493;51.008;14.088;2023-11-19T12:39:32;4.38;;;1.15;;
73264;SDS011;61493;51.008;14.088;2023-11-19T12:41:57;4.47;;;2.08;;
73264;SDS011;61493;51.008;14.088;2023-11-19T12:44:26;6.40;;;1.27;;
73264;SDS011;61493;51.008;14.088;2023-11-19T12:47:04;4.40;;;1.67;;
73264;SDS011;61493;51.008;14.088;2023-11-19T12:49:36;4.95;;;1.35;;
73264;SDS011;61493;51.008;14.088;2023-11-19T12:52:02;4.20;;;1.50;;
73264;SDS011;61493;51.008;14.088;2023-11-19T12:54:36;7.32;;;1.50;;
73264;SDS011;61493;51.008;14.088;2023-11-19T12:57:02;5.50;;;1.63;;
73264;SDS011;61493;51.008;14.088;2023-11-19T12:59:29;3.97;;;1.15;;
73264;SDS011;61493;51.008;14.088;2023-11-19T13:01:55;10.15;;;1.60;;
73264;SDS011;61493;51.008;14.088;2023-11-19T13:04:21;4.93;;;1.52;;
73264;SDS011;61493;51.008;14.088;2023-11-19T13:06:47;6.60;;;1.70;;
73264;SDS011;61493;51.008;14.088;2023-11-19T13:11:48;2.20;;;1.02;;
73264;SDS011;61493;51.008;14.088;2023-11-19T13:14:13;5.97;;;1.38;;
73264;SDS011;61493;51.008;14.088;2023-11-19T13:16:39;4.60;;;1.40;;
73264;SDS011;61493;51.008;14.088;2023-11-19T13:19:07;2.40;;;0.93;;
73264;SDS011;61493;51.008;14.088;2023-11-19T13:21:36;5.18;;;1.30;;
73264;SDS011;61493;51.008;14.088;2023-11-19T13:24:02;3.60;;;1.45;;
73264;SDS011;61493;51.008;14.088;2023-11-19T13:26:27;7.82;;;1.48;;
73264;SDS011;61493;51.008;14.088;2023-11-19T13:29:02;5.90;;;1.75;;
73264;SDS011;61493;51.008;14.088;2023-11-19T13:31:38;4.25;;;1.30;;
73264;SDS011;61493;51.008;14.088;2023-11-19T13:34:03;7.78;;;2.03;;
73264;SDS011;61493;51.008;14.088;2023-11-19T13:36:29;5.03;;;1.48;;
73264;SDS011;61493;51.008;14.088;2023-11-19T13:39:11;7.03;;;1.58;;
73264;SDS011;61493;51.008;14.088;2023-11-19T13:41:44;4.07;;;1.65;;
73264;SDS011;61493;51.008;14.088;2023-11-19T13:44:10;5.15;;;1.70;;
73264;SDS011;61493;51.008;14.088;2023-11-19T13:46:41;5.65;;;1.35;;
73264;SDS011;61493;51.008;14.088;2023-11-19T13:49:10;7.18;;;1.88;;
73264;SDS011;61493;51.008;14.088;2023-11-19T13:51:35;4.55;;;1.83;;
73264;SDS011;61493;51.008;14.088;2023-11-19T13:54:01;5.25;;;1.60;;
73264;SDS011;61493;51.008;14.088;2023-11-19T13:56:26;6.40;;;2.20;;
73264;SDS011;61493;51.008;14.088;2023-11-19T13:58:52;8.57;;;2.15;;
73264;SDS011;61493;51.008;14.088;2023-11-19T14:01:18;7.80;;;1.83;;
73264;SDS011;61493;51.008;14.088;2023-11-19T14:03:44;4.95;;;1.38;;
73264;SDS011;61493;51.008;14.088;2023-11-19T14:06:12;6.03;;;3.08;;
73264;SDS011;61493;51.008;14.088;2023-11-19T14:08:38;6.85;;;1.63;;
73264;SDS011;61493;51.008;14.088;2023-11-19T14:11:07;8.02;;;1.65;;
73264;SDS011;61493;51.008;14.088;2023-11-19T14:13:33;6.32;;;1.67;;
73264;SDS011;61493;51.008;14.088;2023-11-19T14:15:59;7.85;;;2.28;;
73264;SDS011;61493;51.008;14.088;2023-11-19T14:18:25;6.63;;;1.60;;
73264;SDS011;61493;51.008;14.088;2023-11-19T14:20:52;7.30;;;3.05;;
73264;SDS011;61493;51.008;14.088;2023-11-19T14:23:17;10.65;;;3.47;;
73264;SDS011;61493;51.008;14.088;2023-11-19T14:25:43;7.53;;;2.08;;
73264;SDS011;61493;51.008;14.088;2023-11-19T14:28:11;5.47;;;1.85;;
73264;SDS011;61493;51.008;14.088;2023-11-19T14:30:37;9.60;;;2.05;;
73264;SDS011;61493;51.008;14.088;2023-11-19T14:33:03;9.50;;;2.67;;
73264;SDS011;61493;51.008;14.088;2023-11-19T14:35:29;8.70;;;1.60;;
73264;SDS011;61493;51.008;14.088;2023-11-19T14:37:55;6.78;;;1.73;;
73264;SDS011;61493;51.008;14.088;2023-11-19T14:40:20;6.35;;;1.83;;
73264;SDS011;61493;51.008;14.088;2023-11-19T14:42:46;3.75;;;1.25;;
73264;SDS011;61493;51.008;14.088;2023-11-19T14:45:11;4.90;;;1.52;;
73264;SDS011;61493;51.008;14.088;2023-11-19T14:47:37;7.25;;;2.30;;
73264;SDS011;61493;51.008;14.088;2023-11-19T14:50:02;5.80;;;1.73;;
73264;SDS011;61493;51.008;14.088;2023-11-19T14:52:28;8.00;;;1.30;;